Flight Track Log - Related Links

Times and Time Zones

All times are in EDT time to prevent confusion due to time zone crossing. See the EIA5127 flight status page for this flight to view local times or setup timezone preferences in your user account.


Time Position Orientation Groundspeed Altitude Reporting Facility
EDT Latitude Longitude Course Direction KTS MPH feet Rate Location/Type
Sun 11:07:59 AM 57.0000 -20.0000 285° West 427 491 33,000  Level ETMS Transoceanic Report
Sun 11:53:20 AM 58.0000 -30.0000 274° West 443 510 33,000  Level ETMS Transoceanic Report
Sun 12:36:37 PM 58.0000 -40.0000 254° West 444 511 33,000  Level ETMS Transoceanic Report
Sun 01:24:16 PM 56.0000 -50.0000 250° West 456 525 33,000  Level ETMS Transoceanic Report
Sun 01:52:51 PM 54.6167 -55.8167 232° Southwest 440 506 33,000  Level Gander Center
Sun 01:53:51 PM 54.5333 -56.0000 238° Southwest 450 518 33,000 50 Level Gander Center
Sun 01:54:51 PM 54.4667 -56.1833 236° Southwest 450 518 33,100 650 Climbing Gander Center
Sun 01:55:51 PM 54.4000 -56.3500 224° Southwest 450 518 34,300 1,150 Climbing Gander Center
Sun 01:56:51 PM 54.3000 -56.5167 236° Southwest 450 518 35,400 1,000 Climbing Gander Center
Sun 01:57:51 PM 54.2333 -56.6833 221° Southwest 450 518 36,300 900 Climbing Gander Center
Sun 01:58:51 PM 54.1333 -56.8333 227° Southwest 450 518 37,200 850 Climbing Gander Center
Sun 01:59:51 PM 54.0500 -56.9833 238° Southwest 450 518 38,000 400 Climbing Gander Center
Sun 02:00:51 PM 53.9833 -57.1667 227° Southwest 450 518 38,000  Level Gander Center
Sun 02:01:51 PM 53.9000 -57.3167 223° Southwest 440 506 38,000  Level Gander Center
Sun 02:02:51 PM 53.8167 -57.4500 227° Southwest 440 506 38,000  Level Gander Center
Sun 02:03:51 PM 53.7333 -57.6000 227° Southwest 440 506 38,000  Level Gander Center
Sun 02:04:51 PM 53.6500 -57.7500 233° Southwest 440 506 38,000  Level Gander Center
Sun 02:05:51 PM 53.5667 -57.9333 227° Southwest 440 506 38,000  Level Gander Center
Sun 02:06:51 PM 53.4833 -58.0833 224° Southwest 440 506 38,000  Level Gander Center
Sun 02:07:51 PM 53.4000 -58.2167 233° Southwest 440 506 38,000  Level Gander Center
Sun 02:08:51 PM 53.3333 -58.3667 227° Southwest 440 506 38,000  Level Gander Center
Sun 02:09:51 PM 53.2500 -58.5167 222° Southwest 440 506 38,000  Level Gander Center
Sun 02:10:51 PM 53.1500 -58.6667 224° Southwest 440 506 38,000  Level Gander Center
Sun 02:11:51 PM 53.0667 -58.8000 233° Southwest 440 506 38,000  Level Gander Center
Sun 02:12:51 PM 52.9833 -58.9833 230° Southwest 440 506 38,000  Level Gander Center
Sun 02:13:51 PM 52.9167 -59.1167 227° Southwest 440 506 38,000  Level Gander Center
Sun 02:14:51 PM 52.8333 -59.2667 219° Southwest 440 506 38,000  Level Gander Center
Sun 02:15:51 PM 52.7333 -59.4000 228° Southwest 440 506 38,000  Level Gander Center
Sun 02:16:51 PM 52.6500 -59.5500 231° Southwest 450 518 38,000  Level Gander Center
Sun 02:17:51 PM 52.5667 -59.7167 224° Southwest 450 518 38,000  Level Gander Center
Sun 02:18:51 PM 52.4833 -59.8500 223° Southwest 450 518 38,000  Level Gander Center
Sun 02:19:51 PM 52.3833 -60.0000 231° Southwest 450 518 38,000  Level Gander Center
Sun 02:20:51 PM 52.3000 -60.1667 219° Southwest 450 518 38,000  Level Gander Center
Sun 02:21:51 PM 52.2000 -60.3000 225° Southwest 460 529 38,000  Level Gander Center
Sun 02:22:51 PM 52.1167 -60.4333 231° Southwest 460 529 38,000  Level Gander Center
Sun 02:23:51 PM 52.0333 -60.6000 219° Southwest 460 529 38,000  Level Gander Center
Sun 02:24:51 PM 51.9333 -60.7333 231° Southwest 470 541 38,000  Level Gander Center
Sun 02:25:51 PM 51.8500 -60.9000 226° Southwest 470 541 38,000  Level Gander Center
Sun 02:26:51 PM 51.7500 -61.0667 220° Southwest 470 541 38,000  Level Gander Center
Sun 02:27:51 PM 51.6500 -61.2000 231° Southwest 470 541 38,000  Level Gander Center
Sun 02:28:51 PM 51.5667 -61.3667 220° Southwest 470 541 38,000  Level Gander Center
Sun 02:29:51 PM 51.4667 -61.5000 225° Southwest 470 541 38,000  Level Gander Center
Sun 02:30:51 PM 51.3833 -61.6333 223° Southwest 480 552 38,000  Level Gander Center
Sun 02:31:51 PM 51.2833 -61.7833 226° Southwest 480 552 38,000  Level Gander Center
Sun 02:32:51 PM 51.1833 -61.9500 223° Southwest 480 552 38,000  Level Gander Center
Sun 02:33:51 PM 51.0833 -62.1000 225° Southwest 480 552 38,000  Level Gander Center
Sun 02:34:51 PM 51.0000 -62.2333 226° Southwest 480 552 38,000  Level Gander Center
Sun 02:35:51 PM 50.9000 -62.4000 225° Southwest 470 541 38,000  Level Gander Center
Sun 02:36:51 PM 50.8167 -62.5333 224° Southwest 470 541 38,000  Level Gander Center
Sun 02:37:51 PM 50.7167 -62.6833 225° Southwest 470 541 38,000  Level Gander Center
Sun 02:38:51 PM 50.6333 -62.8167 224° Southwest 470 541 38,000  Level Gander Center
Sun 02:39:51 PM 50.5333 -62.9667 224° Southwest 470 541 38,000  Level Gander Center
Sun 02:40:51 PM 50.4333 -63.1167 220° Southwest 480 552 38,000  Level Gander Center
Sun 02:41:51 PM 50.3333 -63.2500 224° Southwest 480 552 38,000  Level Gander Center
Sun 02:42:51 PM 50.2333 -63.4000 224° Southwest 490 564 38,000  Level Gander Center
Sun 02:43:51 PM 50.1333 -63.5500 224° Southwest 490 564 38,000  Level Gander Center
Sun 02:44:51 PM 50.0333 -63.7000 221° Southwest 490 564 38,000  Level Gander Center
Sun 02:45:51 PM 49.9333 -63.8333 224° Southwest 490 564 38,000  Level Gander Center
Sun 02:46:51 PM 49.8333 -63.9833 224° Southwest 490 564 38,000  Level Gander Center
Sun 02:47:51 PM 49.7333 -64.1333 224° Southwest 500 575 38,000  Level Gander Center
Sun 02:48:51 PM 49.6333 -64.2833 217° Southwest 490 564 38,000  Level Gander Center
Sun 02:49:51 PM 49.5167 -64.4167 226° Southwest 490 564 38,000  Level Gander Center
Sun 02:50:51 PM 49.4333 -64.5500 224° Southwest 490 564 38,000  Level Gander Center
Sun 02:51:51 PM 49.3333 -64.7000 221° Southwest 490 564 38,000  Level Gander Center
Sun 02:52:51 PM 49.2333 -64.8333 220° Southwest 490 564 38,000  Level Gander Center
Sun 02:53:51 PM 49.1167 -64.9833 217° Southwest 490 564 38,000  Level Gander Center
Sun 02:54:51 PM 49.0167 -65.1000 230° Southwest 500 575 38,000  Level Gander Center
Sun 02:55:51 PM 48.9167 -65.2833 218° Southwest 500 575 38,000  Level Gander Center
Sun 02:56:51 PM 48.8167 -65.4000 221° Southwest 500 575 38,000  Level Gander Center
Sun 02:57:51 PM 48.7167 -65.5333 225° Southwest 500 575 38,000  Level Gander Center
Sun 02:58:51 PM 48.6167 -65.6833 217° Southwest 510 587 38,000  Level Gander Center
Sun 02:59:51 PM 48.5000 -65.8167 221° Southwest 510 587 38,000  Level Gander Center
Sun 03:00:51 PM 48.3833 -65.9667 227° Southwest 510 587 38,000  Level Gander Center
Sun 03:01:51 PM 48.3000 -66.1000 220° Southwest 520 598 38,000  Level Gander Center
Sun 03:02:51 PM 48.1667 -66.2667 218° Southwest 520 598 38,000  Level Gander Center
Sun 03:03:51 PM 48.0667 -66.3833 224° Southwest 520 598 38,000  Level Gander Center
Sun 03:04:51 PM 47.9500 -66.5500 222° Southwest 520 598 38,000  Level Gander Center
Sun 03:05:51 PM 47.8500 -66.6833 219° Southwest 520 598 38,000  Level Gander Center
Sun 03:06:38 PM 47.7667 -66.7833 224° Southwest 520 598 38,000  Level Moncton Center
Sun 03:08:50 PM 47.5506 -67.0878 219° Southwest 519 597 38,000  Level Boston Center
Sun 03:09:50 PM 47.4239 -67.2383 220° Southwest 534 615 38,000  Level Boston Center
Sun 03:10:50 PM 47.3133 -67.3775 223° Southwest 534 615 38,000  Level Boston Center
Sun 03:11:50 PM 47.2092 -67.5214 224° Southwest 528 608 38,000  Level Boston Center
Sun 03:12:50 PM 47.1008 -67.6744 221° Southwest 534 615 38,000  Level Boston Center
Sun 03:13:50 PM 46.9919 -67.8147 223° Southwest 534 615 38,000  Level Boston Center
Sun 03:14:50 PM 46.8831 -67.9606 221° Southwest 534 615 38,000  Level Boston Center
Sun 03:15:50 PM 46.7797 -68.0900 209° Southwest 539 620 38,000  Level Boston Center
Sun 03:16:50 PM 46.6461 -68.1972 210° Southwest 544 626 38,000  Level Boston Center
Sun 03:17:50 PM 46.5167 -68.3067 209° Southwest 544 626 38,000  Level Boston Center
Sun 03:18:50 PM 46.3811 -68.4158 208° Southwest 549 632 38,000  Level Boston Center
Sun 03:19:50 PM 46.2286 -68.5319 209° Southwest 555 639 38,000  Level Boston Center
Sun 03:20:50 PM 46.0906 -68.6400 207° Southwest 560 644 38,000  Level Boston Center
Sun 03:21:50 PM 45.9544 -68.7419 209° Southwest 560 644 38,000  Level Boston Center
Sun 03:22:50 PM 45.8161 -68.8519 209° Southwest 565 650 38,000  Level Boston Center
Sun 03:23:50 PM 45.6961 -68.9458 208° Southwest 559 643 38,000  Level Boston Center
Sun 03:24:50 PM 45.5575 -69.0492 209° Southwest 559 643 38,000  Level Boston Center
Sun 03:25:50 PM 45.4211 -69.1578 208° Southwest 564 649 38,000  Level Boston Center
Sun 03:26:50 PM 45.2842 -69.2600 208° Southwest 564 649 38,000  Level Boston Center
Sun 03:27:50 PM 45.1456 -69.3647 209° Southwest 564 649 38,000  Level Boston Center
Sun 03:28:50 PM 45.0147 -69.4656 207° Southwest 564 649 38,000  Level Boston Center
Sun 03:29:50 PM 44.8550 -69.5792 209° Southwest 564 649 38,000  Level Boston Center
Sun 03:30:50 PM 44.7325 -69.6756 208° Southwest 573 659 38,000  Level Boston Center
Sun 03:31:50 PM 44.5972 -69.7753 210° Southwest 568 654 38,000  Level Boston Center
Sun 03:32:50 PM 44.4642 -69.8833 211° Southwest 556 640 38,000  Level Boston Center
Sun 03:33:50 PM 44.3353 -69.9903 212° Southwest 536 617 38,000  Level Boston Center
Sun 03:34:50 PM 44.1900 -70.1150 211° Southwest 549 632 38,000  Level Boston Center
Sun 03:35:50 PM 44.0711 -70.2150 211° Southwest 554 638 38,000  Level Boston Center
Sun 03:36:50 PM 43.9378 -70.3267 210° Southwest 554 638 38,000  Level Boston Center
Sun 03:37:50 PM 43.7856 -70.4500 210° Southwest 570 656 38,000  Level Boston Center
Sun 03:38:50 PM 43.6644 -70.5486 211° Southwest 573 659 38,000  Level Boston Center
Sun 03:39:50 PM 43.5183 -70.6678 210° Southwest 564 649 38,000  Level Boston Center
Sun 03:40:50 PM 43.3928 -70.7686 211° Southwest 564 649 38,000  Level Boston Center
Sun 03:41:50 PM 43.2589 -70.8778 210° Southwest 564 649 38,000  Level Boston Center
Sun 03:42:50 PM 43.1228 -70.9864 210° Southwest 569 655 38,000  Level Boston Center
Sun 03:43:50 PM 42.9844 -71.0975 210° Southwest 569 655 38,000  Level Boston Center
Sun 03:44:50 PM 42.8481 -71.2053 210° Southwest 569 655 38,000  Level Boston Center
Sun 03:45:50 PM 42.7136 -71.3097 210° Southwest 569 655 38,000  Level Boston Center
Sun 03:46:50 PM 42.5772 -71.4167 210° Southwest 564 649 38,000  Level Boston Center
Sun 03:47:50 PM 42.4425 -71.5200 208° Southwest 564 649 38,000 250 Level Boston Center
Sun 03:48:50 PM 42.2933 -71.6289 210° Southwest 564 649 38,500 600 Climbing Boston Center
Sun 03:49:50 PM 42.1564 -71.7344 210° Southwest 564 649 39,200 600 Climbing Boston Center
Sun 03:50:50 PM 42.0194 -71.8392 211° Southwest 564 649 39,700 400 Climbing Boston Center
Sun 03:51:50 PM 41.9033 -71.9325 209° Southwest 559 643 40,000 150 Climbing Boston Center
Sun 03:52:50 PM 41.7517 -72.0450 209° Southwest 559 643 40,000  Level Boston Center
Sun 03:53:50 PM 41.6206 -72.1431 209° Southwest 559 643 40,000  Level Boston Center
Sun 03:54:50 PM 41.4875 -72.2406 209° Southwest 559 643 40,000  Level Boston Center
Sun 03:55:50 PM 41.3603 -72.3350 212° Southwest 542 624 40,000  Level Boston Center
Sun 03:56:50 PM 41.2269 -72.4456 217° Southwest 548 631 40,000  Level Boston Center
Sun 03:57:50 PM 41.1083 -72.5642 217° Southwest 553 636 40,000  Level Boston Center
Sun 03:58:50 PM 40.9892 -72.6819 214° Southwest 553 636 40,000  Level Boston Center
Sun 03:59:50 PM 40.8681 -72.7914 216° Southwest 548 631 40,000  Level Boston Center
Sun 04:00:50 PM 40.7447 -72.9086 216° Southwest 548 631 40,000  Level Boston Center
Sun 04:01:50 PM 40.6381 -73.0089 216° Southwest 539 620 40,000  Level Boston Center
Sun 04:03:25 PM 40.4353 -73.1989 216° Southwest 555 639 40,000  Level Washington Center
Sun 04:04:25 PM 40.3147 -73.3117 215° Southwest 555 639 40,000  Level Washington Center
Sun 04:05:23 PM 40.1917 -73.4244 215° Southwest 555 639 40,000  Level Washington Center
Sun 04:06:23 PM 40.0708 -73.5339 215° Southwest 550 633 40,000  Level Washington Center
Sun 04:07:24 PM 39.9497 -73.6456 215° Southwest 550 633 40,000  Level Washington Center
Sun 04:08:24 PM 39.8267 -73.7597 215° Southwest 545 627 40,000  Level Washington Center
Sun 04:09:25 PM 39.7053 -73.8708 215° Southwest 550 633 40,000  Level Washington Center
Sun 04:10:25 PM 39.5839 -73.9814 214° Southwest 550 633 40,000  Level Washington Center
Sun 04:11:23 PM 39.4622 -74.0889 215° Southwest 544 626 40,000  Level Washington Center
Sun 04:12:23 PM 39.3428 -74.1989 215° Southwest 544 626 40,000  Level Washington Center
Sun 04:13:24 PM 39.2189 -74.3111 215° Southwest 544 626 40,000  Level Washington Center
Sun 04:14:25 PM 39.0992 -74.4200 214° Southwest 539 620 40,000  Level Washington Center
Sun 04:15:23 PM 38.9753 -74.5289 215° Southwest 539 620 40,000  Level Washington Center
Sun 04:16:24 PM 38.8531 -74.6372 215° Southwest 539 620 40,000  Level Washington Center
Sun 04:17:24 PM 38.7558 -74.7239 215° Southwest 539 620 40,000  Level Washington Center
Sun 04:18:25 PM 38.6253 -74.8422 214° Southwest 534 615 40,000  Level Washington Center
Sun 04:19:23 PM 38.5028 -74.9469 215° Southwest 539 620 40,000  Level Washington Center
Sun 04:20:24 PM 38.3803 -75.0567 215° Southwest 539 620 40,000  Level Washington Center
Sun 04:21:24 PM 38.2600 -75.1633 215° Southwest 539 620 40,000  Level Washington Center
Sun 04:22:24 PM 38.1392 -75.2722 214° Southwest 539 620 40,000  Level Washington Center
Sun 04:23:25 PM 38.0164 -75.3756 214° Southwest 539 620 40,000  Level Washington Center
Sun 04:24:23 PM 37.8936 -75.4811 215° Southwest 539 620 40,000  Level Washington Center
Sun 04:25:24 PM 37.7706 -75.5892 214° Southwest 539 620 40,000  Level Washington Center
Sun 04:26:25 PM 37.6456 -75.6942 214° Southwest 539 620 40,000  Level Washington Center
Sun 04:27:25 PM 37.5222 -75.7986 214° Southwest 539 620 40,000  Level Washington Center
Sun 04:28:23 PM 37.3989 -75.9028 214° Southwest 539 620 40,000  Level Washington Center
Sun 04:29:24 PM 37.2736 -76.0094 214° Southwest 539 620 40,000  Level Washington Center
Sun 04:30:25 PM 37.1522 -76.1131 212° Southwest 539 620 40,000  Level Washington Center
Sun 04:31:22 PM 37.0119 -76.2214 213° Southwest 544 626 40,000  Level Washington Center
Sun 04:32:23 PM 36.8925 -76.3192 214° Southwest 539 620 40,000  Level Washington Center
Sun 04:33:24 PM 36.7728 -76.4217 215° Southwest 529 609 40,000  Level Washington Center
Sun 04:34:24 PM 36.6658 -76.5164 213° Southwest 529 609 40,000  Level Washington Center
Sun 04:35:25 PM 36.5439 -76.6158 214° Southwest 529 609 40,000  Level Washington Center
Sun 04:36:23 PM 36.4242 -76.7147 212° Southwest 529 609 40,000  Level Washington Center
Sun 04:37:24 PM 36.3022 -76.8111 213° Southwest 524 603 40,000  Level Washington Center
Sun 04:38:24 PM 36.1800 -76.9094 214° Southwest 524 603 40,000  Level Washington Center
Sun 04:39:25 PM 36.0622 -77.0078 213° Southwest 524 603 40,000  Level Washington Center
Sun 04:40:23 PM 35.9419 -77.1031 213° Southwest 524 603 40,000  Level Washington Center
Sun 04:41:24 PM 35.8156 -77.2031 213° Southwest 515 593 40,000 -344 Level Washington Center
Sun 04:42:25 PM 35.7081 -77.2906 213° Southwest 515 593 39,300 -1,008 Descending Washington Center
Sun 04:43:23 PM 35.5897 -77.3850 212° Southwest 515 593 38,000 -1,210 Descending Washington Center
Sun 04:44:24 PM 35.4672 -77.4792 215° Southwest 515 593 36,900 -1,041 Descending Washington Center
Sun 04:45:24 PM 35.3508 -77.5808 220° Southwest 515 593 35,900 -1,091 Descending Washington Center
Sun 04:46:25 PM 35.2406 -77.6928 220° Southwest 515 593 34,700 -942 Descending Washington Center
Sun 04:47:25 PM 35.1214 -77.8164 220° Southwest 520 598 34,000 -356 Descending Washington Center
Sun 04:48:23 PM 35.0108 -77.9300 221° Southwest 520 598 34,000 -50 Level Washington Center
Sun 04:49:24 PM 34.9000 -78.0458 220° Southwest 512 589 33,900 -443 Descending Washington Center
Sun 04:50:25 PM 34.8147 -78.1319 221° Southwest 514 592 33,100 -1,014 Descending Washington Center
Sun 04:52:51 PM 34.5314 -78.4267 221° Southwest 511 588 30,400 -1,194 Descending Jacksonville Center
Sun 04:53:51 PM 34.4267 -78.5353 218° Southwest 511 588 29,000 -1,190 Descending Jacksonville Center
Sun 04:54:52 PM 34.3156 -78.6414 221° Southwest 511 588 28,000 -645 Descending Jacksonville Center
Sun 04:55:52 PM 34.2086 -78.7522 220° Southwest 511 588 27,700 -605 Descending Jacksonville Center
Sun 04:56:51 PM 34.1036 -78.8575 219° Southwest 506 582 26,800 -850 Descending Jacksonville Center
Sun 04:57:52 PM 34.0125 -78.9469 220° Southwest 500 575 26,000 -744 Descending Jacksonville Center
Sun 04:58:52 PM 33.9175 -79.0436 220° Southwest 479 551 25,300 -756 Descending Jacksonville Center
Sun 04:59:51 PM 33.8203 -79.1406 219° Southwest 464 534 24,500 -850 Descending Jacksonville Center
Sun 05:00:52 PM 33.7269 -79.2317 218° Southwest 453 521 23,600 -1,587 Descending Jacksonville Center
Sun 05:01:52 PM 33.6253 -79.3258 219° Southwest 435 501 21,300 -2,200 Descending Jacksonville Center
Sun 05:02:52 PM 33.5542 -79.3958 219° Southwest 428 493 19,200 -2,150 Descending Jacksonville Center
Sun 05:03:52 PM 33.4608 -79.4867 220° Southwest 416 479 17,000 -2,000 Descending Jacksonville Center
Sun 05:04:52 PM 33.3775 -79.5694 219° Southwest 406 467 15,200 -1,600 Descending Jacksonville Center
Sun 05:05:52 PM 33.3000 -79.6444 233° Southwest 386 444 13,800 -1,462 Descending Jacksonville Center
Sun 05:06:51 PM 33.2500 -79.7233 244° Southwest 354 407 12,300 -1,866 Descending Jacksonville Center
Sun 05:07:51 PM 33.2144 -79.8089 243° Southwest 308 354 10,100 -2,370 Descending Jacksonville Center
Sun 05:08:50 PM 33.1769 -79.8972 244° Southwest 262 302 7,600 -1,785 Descending Jacksonville Center
Sun 05:09:52 PM 33.1511 -79.9600 243° Southwest 267 307 6,500 -1,240 Descending Jacksonville Center
Sun 05:10:51 PM 33.1236 -80.0253 243° Southwest 242 278 5,100 -1,412 Descending Jacksonville Center
Sun 05:11:51 PM 33.0958 -80.0908 226° Southwest 231 266 3,700 -1,289 Descending Jacksonville Center
Sun 05:12:52 PM 33.0572 -80.1392 154° Southeast 217 250 2,500 -734 Descending Jacksonville Center
Sun 05:15:40 PM 32.9453 -80.0756 154° Southeast 152 175 900 -571 Descending Jacksonville Center

Login

Don't have an account? Register now (free) for customized features, flight alerts, and more!